sensor_id;sensor_type;location;lat;lon;timestamp;P1;durP1;ratioP1;P2;durP2;ratioP2
7116;SDS011;3600;48.568;7.870;2023-03-23T00:01:03;2.55;;;2.00;;
7116;SDS011;3600;48.568;7.870;2023-03-23T00:03:30;2.22;;;1.90;;
7116;SDS011;3600;48.568;7.870;2023-03-23T00:06:00;3.75;;;1.92;;
7116;SDS011;3600;48.568;7.870;2023-03-23T00:08:38;2.30;;;2.10;;
7116;SDS011;3600;48.568;7.870;2023-03-23T00:11:15;1.90;;;1.80;;
7116;SDS011;3600;48.568;7.870;2023-03-23T00:13:47;1.85;;;1.75;;
7116;SDS011;3600;48.568;7.870;2023-03-23T00:16:17;2.20;;;2.00;;
7116;SDS011;3600;48.568;7.870;2023-03-23T00:18:45;2.63;;;2.17;;
7116;SDS011;3600;48.568;7.870;2023-03-23T00:21:21;1.83;;;1.70;;
7116;SDS011;3600;48.568;7.870;2023-03-23T00:24:19;2.13;;;2.03;;
7116;SDS011;3600;48.568;7.870;2023-03-23T00:26:45;2.63;;;1.88;;
7116;SDS011;3600;48.568;7.870;2023-03-23T00:31:38;2.13;;;1.90;;
7116;SDS011;3600;48.568;7.870;2023-03-23T00:34:05;2.35;;;2.15;;
7116;SDS011;3600;48.568;7.870;2023-03-23T00:36:31;2.88;;;1.98;;
7116;SDS011;3600;48.568;7.870;2023-03-23T00:39:00;2.95;;;2.17;;
7116;SDS011;3600;48.568;7.870;2023-03-23T00:41:27;2.58;;;2.13;;
7116;SDS011;3600;48.568;7.870;2023-03-23T00:43:54;2.22;;;2.00;;
7116;SDS011;3600;48.568;7.870;2023-03-23T00:46:21;2.47;;;1.65;;
7116;SDS011;3600;48.568;7.870;2023-03-23T00:48:47;2.13;;;2.00;;
7116;SDS011;3600;48.568;7.870;2023-03-23T00:51:13;2.30;;;2.10;;
7116;SDS011;3600;48.568;7.870;2023-03-23T00:53:39;1.95;;;1.75;;
7116;SDS011;3600;48.568;7.870;2023-03-23T00:56:05;2.53;;;2.08;;
7116;SDS011;3600;48.568;7.870;2023-03-23T00:58:32;2.38;;;1.92;;
7116;SDS011;3600;48.568;7.870;2023-03-23T01:00:58;1.90;;;1.80;;
7116;SDS011;3600;48.568;7.870;2023-03-23T01:03:23;2.67;;;2.00;;
7116;SDS011;3600;48.568;7.870;2023-03-23T01:05:51;2.85;;;1.70;;
7116;SDS011;3600;48.568;7.870;2023-03-23T01:08:18;2.10;;;1.90;;
7116;SDS011;3600;48.568;7.870;2023-03-23T01:10:44;2.30;;;2.10;;
7116;SDS011;3600;48.568;7.870;2023-03-23T01:13:11;3.42;;;2.20;;
7116;SDS011;3600;48.568;7.870;2023-03-23T01:15:38;1.80;;;1.70;;
7116;SDS011;3600;48.568;7.870;2023-03-23T01:18:04;2.10;;;1.90;;
7116;SDS011;3600;48.568;7.870;2023-03-23T01:20:30;1.80;;;1.70;;
7116;SDS011;3600;48.568;7.870;2023-03-23T01:22:57;1.73;;;1.63;;
7116;SDS011;3600;48.568;7.870;2023-03-23T01:25:29;2.28;;;1.67;;
7116;SDS011;3600;48.568;7.870;2023-03-23T01:27:57;2.72;;;1.70;;
7116;SDS011;3600;48.568;7.870;2023-03-23T01:30:23;1.60;;;1.50;;
7116;SDS011;3600;48.568;7.870;2023-03-23T01:32:50;1.95;;;1.60;;
7116;SDS011;3600;48.568;7.870;2023-03-23T01:35:16;1.80;;;1.63;;
7116;SDS011;3600;48.568;7.870;2023-03-23T01:37:42;1.90;;;1.77;;
7116;SDS011;3600;48.568;7.870;2023-03-23T01:40:09;3.15;;;1.70;;
7116;SDS011;3600;48.568;7.870;2023-03-23T01:42:36;1.80;;;1.70;;
7116;SDS011;3600;48.568;7.870;2023-03-23T01:47:38;1.85;;;1.65;;
7116;SDS011;3600;48.568;7.870;2023-03-23T01:50:03;1.90;;;1.80;;
7116;SDS011;3600;48.568;7.870;2023-03-23T01:52:29;1.70;;;1.60;;
7116;SDS011;3600;48.568;7.870;2023-03-23T01:54:55;4.35;;;1.80;;
7116;SDS011;3600;48.568;7.870;2023-03-23T01:57:23;2.28;;;1.73;;
7116;SDS011;3600;48.568;7.870;2023-03-23T01:59:55;2.13;;;1.75;;
7116;SDS011;3600;48.568;7.870;2023-03-23T02:02:23;1.65;;;1.55;;
7116;SDS011;3600;48.568;7.870;2023-03-23T02:04:51;3.35;;;2.03;;
7116;SDS011;3600;48.568;7.870;2023-03-23T02:07:20;2.00;;;1.83;;
7116;SDS011;3600;48.568;7.870;2023-03-23T02:09:46;3.05;;;1.50;;
7116;SDS011;3600;48.568;7.870;2023-03-23T02:12:13;1.65;;;1.40;;
7116;SDS011;3600;48.568;7.870;2023-03-23T02:14:38;1.38;;;1.27;;
7116;SDS011;3600;48.568;7.870;2023-03-23T02:17:06;1.63;;;1.50;;
7116;SDS011;3600;48.568;7.870;2023-03-23T02:25:30;4.00;;;1.75;;
7116;SDS011;3600;48.568;7.870;2023-03-23T02:37:02;1.67;;;1.58;;
7116;SDS011;3600;48.568;7.870;2023-03-23T02:39:34;1.90;;;1.70;;
7116;SDS011;3600;48.568;7.870;2023-03-23T02:42:10;2.90;;;1.77;;
7116;SDS011;3600;48.568;7.870;2023-03-23T02:44:41;2.70;;;1.80;;
7116;SDS011;3600;48.568;7.870;2023-03-23T02:47:11;1.83;;;1.73;;
7116;SDS011;3600;48.568;7.870;2023-03-23T02:49:46;1.90;;;1.67;;
7116;SDS011;3600;48.568;7.870;2023-03-23T02:52:18;2.13;;;1.63;;
7116;SDS011;3600;48.568;7.870;2023-03-23T02:54:47;2.58;;;1.90;;
7116;SDS011;3600;48.568;7.870;2023-03-23T02:57:14;1.73;;;1.63;;
7116;SDS011;3600;48.568;7.870;2023-03-23T02:59:41;1.98;;;1.70;;
7116;SDS011;3600;48.568;7.870;2023-03-23T03:02:09;2.28;;;2.00;;
7116;SDS011;3600;48.568;7.870;2023-03-23T03:04:46;1.77;;;1.63;;
7116;SDS011;3600;48.568;7.870;2023-03-23T03:07:27;1.73;;;1.63;;
7116;SDS011;3600;48.568;7.870;2023-03-23T03:10:10;3.42;;;2.00;;
7116;SDS011;3600;48.568;7.870;2023-03-23T03:12:46;1.75;;;1.65;;
7116;SDS011;3600;48.568;7.870;2023-03-23T03:18:11;1.70;;;1.60;;
7116;SDS011;3600;48.568;7.870;2023-03-23T03:20:43;2.45;;;1.60;;
7116;SDS011;3600;48.568;7.870;2023-03-23T03:23:12;1.50;;;1.40;;
7116;SDS011;3600;48.568;7.870;2023-03-23T03:25:41;1.60;;;1.48;;
7116;SDS011;3600;48.568;7.870;2023-03-23T03:28:13;1.85;;;1.75;;
7116;SDS011;3600;48.568;7.870;2023-03-23T03:30:46;2.25;;;1.90;;
7116;SDS011;3600;48.568;7.870;2023-03-23T03:33:16;2.00;;;1.90;;
7116;SDS011;3600;48.568;7.870;2023-03-23T03:35:42;1.80;;;1.70;;
7116;SDS011;3600;48.568;7.870;2023-03-23T03:38:10;2.30;;;1.80;;
7116;SDS011;3600;48.568;7.870;2023-03-23T03:40:37;4.07;;;2.13;;
7116;SDS011;3600;48.568;7.870;2023-03-23T03:43:03;1.95;;;1.80;;
7116;SDS011;3600;48.568;7.870;2023-03-23T03:45:30;1.90;;;1.52;;
7116;SDS011;3600;48.568;7.870;2023-03-23T03:47:56;2.30;;;1.70;;
7116;SDS011;3600;48.568;7.870;2023-03-23T03:50:21;1.98;;;1.77;;
7116;SDS011;3600;48.568;7.870;2023-03-23T03:52:48;2.10;;;1.92;;
7116;SDS011;3600;48.568;7.870;2023-03-23T03:55:14;1.77;;;1.67;;
7116;SDS011;3600;48.568;7.870;2023-03-23T03:57:42;1.83;;;1.70;;
7116;SDS011;3600;48.568;7.870;2023-03-23T04:00:08;2.08;;;1.98;;
7116;SDS011;3600;48.568;7.870;2023-03-23T04:02:39;2.67;;;1.73;;
7116;SDS011;3600;48.568;7.870;2023-03-23T04:05:06;1.70;;;1.60;;
7116;SDS011;3600;48.568;7.870;2023-03-23T04:07:34;1.70;;;1.60;;
7116;SDS011;3600;48.568;7.870;2023-03-23T04:10:04;4.80;;;2.08;;
7116;SDS011;3600;48.568;7.870;2023-03-23T04:12:31;2.03;;;1.80;;
7116;SDS011;3600;48.568;7.870;2023-03-23T04:14:57;1.80;;;1.70;;
7116;SDS011;3600;48.568;7.870;2023-03-23T04:17:23;1.95;;;1.80;;
7116;SDS011;3600;48.568;7.870;2023-03-23T04:19:51;1.95;;;1.80;;
7116;SDS011;3600;48.568;7.870;2023-03-23T04:22:17;2.05;;;1.52;;
7116;SDS011;3600;48.568;7.870;2023-03-23T04:24:43;1.77;;;1.67;;
7116;SDS011;3600;48.568;7.870;2023-03-23T04:27:09;1.77;;;1.67;;
7116;SDS011;3600;48.568;7.870;2023-03-23T04:29:34;1.95;;;1.60;;
7116;SDS011;3600;48.568;7.870;2023-03-23T04:32:00;1.63;;;1.52;;
7116;SDS011;3600;48.568;7.870;2023-03-23T04:34:27;1.38;;;1.27;;
7116;SDS011;3600;48.568;7.870;2023-03-23T04:36:52;2.53;;;1.50;;
7116;SDS011;3600;48.568;7.870;2023-03-23T04:39:18;1.80;;;1.70;;
7116;SDS011;3600;48.568;7.870;2023-03-23T04:41:44;3.22;;;1.60;;
7116;SDS011;3600;48.568;7.870;2023-03-23T04:44:11;2.17;;;1.73;;
7116;SDS011;3600;48.568;7.870;2023-03-23T04:46:43;2.55;;;2.00;;
7116;SDS011;3600;48.568;7.870;2023-03-23T04:49:10;1.85;;;1.75;;
7116;SDS011;3600;48.568;7.870;2023-03-23T04:51:36;2.03;;;1.85;;
7116;SDS011;3600;48.568;7.870;2023-03-23T04:54:04;1.77;;;1.67;;
7116;SDS011;3600;48.568;7.870;2023-03-23T04:56:29;2.17;;;1.73;;
7116;SDS011;3600;48.568;7.870;2023-03-23T04:58:55;1.70;;;1.60;;
7116;SDS011;3600;48.568;7.870;2023-03-23T05:01:21;1.80;;;1.70;;
7116;SDS011;3600;48.568;7.870;2023-03-23T05:03:46;1.63;;;1.52;;
7116;SDS011;3600;48.568;7.870;2023-03-23T05:06:12;2.88;;;1.73;;
7116;SDS011;3600;48.568;7.870;2023-03-23T05:08:38;1.75;;;1.65;;
7116;SDS011;3600;48.568;7.870;2023-03-23T05:11:04;1.98;;;1.80;;
7116;SDS011;3600;48.568;7.870;2023-03-23T05:13:31;2.10;;;2.00;;
7116;SDS011;3600;48.568;7.870;2023-03-23T05:15:57;2.30;;;1.73;;
7116;SDS011;3600;48.568;7.870;2023-03-23T05:18:23;2.63;;;1.92;;
7116;SDS011;3600;48.568;7.870;2023-03-23T05:20:49;2.58;;;1.88;;
7116;SDS011;3600;48.568;7.870;2023-03-23T05:23:17;1.85;;;1.75;;
7116;SDS011;3600;48.568;7.870;2023-03-23T05:25:51;2.45;;;1.77;;
7116;SDS011;3600;48.568;7.870;2023-03-23T05:28:21;3.50;;;2.13;;
7116;SDS011;3600;48.568;7.870;2023-03-23T05:30:47;2.92;;;1.95;;
7116;SDS011;3600;48.568;7.870;2023-03-23T05:33:14;2.83;;;1.77;;
7116;SDS011;3600;48.568;7.870;2023-03-23T05:35:40;2.25;;;1.42;;
7116;SDS011;3600;48.568;7.870;2023-03-23T05:38:06;1.95;;;1.80;;
7116;SDS011;3600;48.568;7.870;2023-03-23T05:40:32;1.88;;;1.77;;
7116;SDS011;3600;48.568;7.870;2023-03-23T05:42:57;2.53;;;2.00;;
7116;SDS011;3600;48.568;7.870;2023-03-23T05:45:24;3.65;;;1.90;;
7116;SDS011;3600;48.568;7.870;2023-03-23T05:47:51;2.13;;;1.92;;
7116;SDS011;3600;48.568;7.870;2023-03-23T05:50:17;3.75;;;2.05;;
7116;SDS011;3600;48.568;7.870;2023-03-23T05:52:43;2.85;;;2.22;;
7116;SDS011;3600;48.568;7.870;2023-03-23T05:55:09;2.50;;;2.10;;
7116;SDS011;3600;48.568;7.870;2023-03-23T05:57:36;2.42;;;2.05;;
7116;SDS011;3600;48.568;7.870;2023-03-23T06:00:02;2.00;;;1.90;;
7116;SDS011;3600;48.568;7.870;2023-03-23T06:02:36;2.50;;;2.30;;
7116;SDS011;3600;48.568;7.870;2023-03-23T06:05:02;2.30;;;2.20;;
7116;SDS011;3600;48.568;7.870;2023-03-23T06:07:28;3.17;;;2.40;;
7116;SDS011;3600;48.568;7.870;2023-03-23T06:09:54;4.00;;;2.17;;
7116;SDS011;3600;48.568;7.870;2023-03-23T06:12:20;2.70;;;2.15;;
7116;SDS011;3600;48.568;7.870;2023-03-23T06:14:46;2.05;;;1.95;;
7116;SDS011;3600;48.568;7.870;2023-03-23T06:17:14;2.03;;;1.92;;
7116;SDS011;3600;48.568;7.870;2023-03-23T06:19:41;2.08;;;1.98;;
7116;SDS011;3600;48.568;7.870;2023-03-23T06:22:07;2.40;;;2.20;;
7116;SDS011;3600;48.568;7.870;2023-03-23T06:24:32;4.15;;;2.10;;
7116;SDS011;3600;48.568;7.870;2023-03-23T06:26:59;4.47;;;2.58;;
7116;SDS011;3600;48.568;7.870;2023-03-23T06:29:25;3.28;;;2.97;;
7116;SDS011;3600;48.568;7.870;2023-03-23T06:31:52;3.15;;;2.45;;
7116;SDS011;3600;48.568;7.870;2023-03-23T06:34:21;2.70;;;2.50;;
7116;SDS011;3600;48.568;7.870;2023-03-23T06:36:47;4.15;;;2.33;;
7116;SDS011;3600;48.568;7.870;2023-03-23T06:39:12;4.80;;;2.33;;
7116;SDS011;3600;48.568;7.870;2023-03-23T06:41:38;3.28;;;2.13;;
7116;SDS011;3600;48.568;7.870;2023-03-23T06:44:05;2.30;;;2.10;;
7116;SDS011;3600;48.568;7.870;2023-03-23T06:46:31;2.47;;;2.25;;
7116;SDS011;3600;48.568;7.870;2023-03-23T06:48:57;3.35;;;2.33;;
7116;SDS011;3600;48.568;7.870;2023-03-23T06:51:23;2.20;;;2.00;;
7116;SDS011;3600;48.568;7.870;2023-03-23T06:53:49;2.42;;;2.03;;
7116;SDS011;3600;48.568;7.870;2023-03-23T06:56:15;4.75;;;2.90;;
7116;SDS011;3600;48.568;7.870;2023-03-23T06:58:41;3.20;;;2.20;;
7116;SDS011;3600;48.568;7.870;2023-03-23T07:01:07;2.35;;;2.15;;
7116;SDS011;3600;48.568;7.870;2023-03-23T07:03:34;2.58;;;2.15;;
7116;SDS011;3600;48.568;7.870;2023-03-23T07:06:00;2.78;;;2.30;;
7116;SDS011;3600;48.568;7.870;2023-03-23T07:08:26;5.10;;;3.63;;
7116;SDS011;3600;48.568;7.870;2023-03-23T07:10:53;5.15;;;3.20;;
7116;SDS011;3600;48.568;7.870;2023-03-23T07:13:19;3.85;;;2.78;;
7116;SDS011;3600;48.568;7.870;2023-03-23T07:15:45;12.20;;;7.43;;
7116;SDS011;3600;48.568;7.870;2023-03-23T07:18:11;20.77;;;12.13;;
7116;SDS011;3600;48.568;7.870;2023-03-23T07:20:37;10.98;;;6.63;;
7116;SDS011;3600;48.568;7.870;2023-03-23T07:23:03;9.45;;;5.93;;
7116;SDS011;3600;48.568;7.870;2023-03-23T07:25:31;8.70;;;4.05;;
7116;SDS011;3600;48.568;7.870;2023-03-23T07:27:58;3.95;;;3.10;;
7116;SDS011;3600;48.568;7.870;2023-03-23T07:30:25;5.97;;;4.97;;
7116;SDS011;3600;48.568;7.870;2023-03-23T07:32:51;5.15;;;4.72;;
7116;SDS011;3600;48.568;7.870;2023-03-23T07:35:17;3.70;;;3.40;;
7116;SDS011;3600;48.568;7.870;2023-03-23T07:37:42;2.85;;;2.65;;
7116;SDS011;3600;48.568;7.870;2023-03-23T07:40:08;2.22;;;2.03;;
7116;SDS011;3600;48.568;7.870;2023-03-23T07:42:44;2.33;;;2.13;;
7116;SDS011;3600;48.568;7.870;2023-03-23T07:45:14;7.00;;;4.72;;
7116;SDS011;3600;48.568;7.870;2023-03-23T07:47:40;7.57;;;5.00;;
7116;SDS011;3600;48.568;7.870;2023-03-23T07:50:06;5.25;;;4.43;;
7116;SDS011;3600;48.568;7.870;2023-03-23T07:52:33;3.30;;;2.05;;
7116;SDS011;3600;48.568;7.870;2023-03-23T07:54:59;2.38;;;1.60;;
7116;SDS011;3600;48.568;7.870;2023-03-23T07:57:27;2.08;;;1.45;;
7116;SDS011;3600;48.568;7.870;2023-03-23T07:59:53;1.52;;;1.40;;
7116;SDS011;3600;48.568;7.870;2023-03-23T08:02:19;2.03;;;1.40;;
7116;SDS011;3600;48.568;7.870;2023-03-23T08:04:45;1.55;;;1.40;;
7116;SDS011;3600;48.568;7.870;2023-03-23T08:07:12;1.40;;;1.30;;
7116;SDS011;3600;48.568;7.870;2023-03-23T08:09:41;1.45;;;1.35;;
7116;SDS011;3600;48.568;7.870;2023-03-23T08:12:07;1.60;;;1.40;;
7116;SDS011;3600;48.568;7.870;2023-03-23T08:14:33;1.23;;;1.05;;
7116;SDS011;3600;48.568;7.870;2023-03-23T08:16:59;1.30;;;1.20;;
7116;SDS011;3600;48.568;7.870;2023-03-23T08:19:25;1.58;;;1.48;;
7116;SDS011;3600;48.568;7.870;2023-03-23T08:21:51;2.10;;;1.40;;
7116;SDS011;3600;48.568;7.870;2023-03-23T08:24:17;3.35;;;1.42;;
7116;SDS011;3600;48.568;7.870;2023-03-23T08:26:43;1.73;;;1.27;;
7116;SDS011;3600;48.568;7.870;2023-03-23T08:29:09;2.17;;;1.23;;
7116;SDS011;3600;48.568;7.870;2023-03-23T08:31:35;3.20;;;1.42;;
7116;SDS011;3600;48.568;7.870;2023-03-23T08:34:03;1.65;;;1.27;;
7116;SDS011;3600;48.568;7.870;2023-03-23T08:36:33;2.25;;;1.25;;
7116;SDS011;3600;48.568;7.870;2023-03-23T08:38:59;1.45;;;1.10;;
7116;SDS011;3600;48.568;7.870;2023-03-23T08:41:25;2.25;;;1.67;;
7116;SDS011;3600;48.568;7.870;2023-03-23T08:43:51;2.17;;;1.65;;
7116;SDS011;3600;48.568;7.870;2023-03-23T08:46:19;2.45;;;1.40;;
7116;SDS011;3600;48.568;7.870;2023-03-23T08:48:45;1.48;;;1.38;;
7116;SDS011;3600;48.568;7.870;2023-03-23T08:51:12;1.20;;;1.10;;
7116;SDS011;3600;48.568;7.870;2023-03-23T08:53:37;1.70;;;1.40;;
7116;SDS011;3600;48.568;7.870;2023-03-23T08:56:05;1.55;;;1.45;;
7116;SDS011;3600;48.568;7.870;2023-03-23T08:58:32;1.33;;;1.27;;
7116;SDS011;3600;48.568;7.870;2023-03-23T09:00:58;2.35;;;1.45;;
7116;SDS011;3600;48.568;7.870;2023-03-23T09:03:25;1.30;;;1.20;;
7116;SDS011;3600;48.568;7.870;2023-03-23T09:05:50;2.00;;;1.38;;
7116;SDS011;3600;48.568;7.870;2023-03-23T09:08:16;1.52;;;1.42;;
7116;SDS011;3600;48.568;7.870;2023-03-23T09:10:42;1.40;;;1.30;;
7116;SDS011;3600;48.568;7.870;2023-03-23T09:13:08;2.30;;;1.52;;
7116;SDS011;3600;48.568;7.870;2023-03-23T09:15:34;2.28;;;1.30;;
7116;SDS011;3600;48.568;7.870;2023-03-23T09:17:59;3.90;;;2.53;;
7116;SDS011;3600;48.568;7.870;2023-03-23T09:20:26;4.22;;;1.75;;
7116;SDS011;3600;48.568;7.870;2023-03-23T09:22:53;3.72;;;2.55;;
7116;SDS011;3600;48.568;7.870;2023-03-23T09:25:21;3.20;;;2.20;;
7116;SDS011;3600;48.568;7.870;2023-03-23T09:27:49;2.15;;;1.92;;
7116;SDS011;3600;48.568;7.870;2023-03-23T09:30:21;2.80;;;1.80;;
7116;SDS011;3600;48.568;7.870;2023-03-23T09:32:59;2.17;;;1.75;;
7116;SDS011;3600;48.568;7.870;2023-03-23T09:35:29;2.10;;;1.70;;
7116;SDS011;3600;48.568;7.870;2023-03-23T09:37:56;1.55;;;1.42;;
7116;SDS011;3600;48.568;7.870;2023-03-23T09:40:30;2.85;;;1.70;;
7116;SDS011;3600;48.568;7.870;2023-03-23T09:43:29;2.67;;;1.92;;
7116;SDS011;3600;48.568;7.870;2023-03-23T09:48:52;1.75;;;1.63;;
7116;SDS011;3600;48.568;7.870;2023-03-23T09:53:55;2.22;;;1.98;;
7116;SDS011;3600;48.568;7.870;2023-03-23T09:56:29;2.10;;;1.85;;
7116;SDS011;3600;48.568;7.870;2023-03-23T09:59:02;1.95;;;1.85;;
7116;SDS011;3600;48.568;7.870;2023-03-23T10:04:05;3.70;;;2.58;;
7116;SDS011;3600;48.568;7.870;2023-03-23T10:06:56;2.05;;;1.80;;
7116;SDS011;3600;48.568;7.870;2023-03-23T10:09:40;2.33;;;2.13;;
7116;SDS011;3600;48.568;7.870;2023-03-23T10:12:13;2.70;;;2.50;;
7116;SDS011;3600;48.568;7.870;2023-03-23T10:17:33;2.08;;;1.98;;
7116;SDS011;3600;48.568;7.870;2023-03-23T10:20:18;2.92;;;2.17;;
7116;SDS011;3600;48.568;7.870;2023-03-23T10:22:52;3.10;;;2.03;;
7116;SDS011;3600;48.568;7.870;2023-03-23T10:25:35;2.40;;;2.10;;
7116;SDS011;3600;48.568;7.870;2023-03-23T10:28:13;4.57;;;2.80;;
7116;SDS011;3600;48.568;7.870;2023-03-23T10:30:51;2.42;;;2.22;;
7116;SDS011;3600;48.568;7.870;2023-03-23T10:33:25;2.40;;;2.20;;
7116;SDS011;3600;48.568;7.870;2023-03-23T10:38:49;3.05;;;2.70;;
7116;SDS011;3600;48.568;7.870;2023-03-23T10:41:42;2.47;;;2.28;;
7116;SDS011;3600;48.568;7.870;2023-03-23T10:44:17;2.72;;;2.53;;
7116;SDS011;3600;48.568;7.870;2023-03-23T10:46:51;4.07;;;2.63;;
7116;SDS011;3600;48.568;7.870;2023-03-23T10:57:35;3.47;;;2.58;;
7116;SDS011;3600;48.568;7.870;2023-03-23T11:00:04;2.63;;;2.42;;
7116;SDS011;3600;48.568;7.870;2023-03-23T11:02:44;3.95;;;2.60;;
7116;SDS011;3600;48.568;7.870;2023-03-23T11:05:17;3.40;;;2.40;;
7116;SDS011;3600;48.568;7.870;2023-03-23T11:08:03;3.22;;;2.92;;
7116;SDS011;3600;48.568;7.870;2023-03-23T11:10:38;2.63;;;2.40;;
7116;SDS011;3600;48.568;7.870;2023-03-23T11:13:10;3.20;;;2.45;;
7116;SDS011;3600;48.568;7.870;2023-03-23T11:15:41;3.53;;;2.60;;
7116;SDS011;3600;48.568;7.870;2023-03-23T11:18:11;5.90;;;2.38;;
7116;SDS011;3600;48.568;7.870;2023-03-23T11:20:40;3.42;;;2.60;;
7116;SDS011;3600;48.568;7.870;2023-03-23T11:23:08;3.60;;;2.85;;
7116;SDS011;3600;48.568;7.870;2023-03-23T11:28:32;3.15;;;2.60;;
7116;SDS011;3600;48.568;7.870;2023-03-23T11:31:00;5.07;;;2.72;;
7116;SDS011;3600;48.568;7.870;2023-03-23T11:33:35;3.05;;;2.75;;
7116;SDS011;3600;48.568;7.870;2023-03-23T11:36:04;2.83;;;2.50;;
7116;SDS011;3600;48.568;7.870;2023-03-23T11:38:31;2.90;;;2.60;;
7116;SDS011;3600;48.568;7.870;2023-03-23T11:40:58;2.80;;;2.17;;
7116;SDS011;3600;48.568;7.870;2023-03-23T11:43:25;4.30;;;2.78;;
7116;SDS011;3600;48.568;7.870;2023-03-23T11:48:48;2.45;;;2.25;;
7116;SDS011;3600;48.568;7.870;2023-03-23T11:51:28;4.25;;;2.58;;
7116;SDS011;3600;48.568;7.870;2023-03-23T11:54:09;2.67;;;2.45;;
7116;SDS011;3600;48.568;7.870;2023-03-23T11:56:45;2.50;;;2.30;;
7116;SDS011;3600;48.568;7.870;2023-03-23T11:59:15;3.60;;;2.80;;
7116;SDS011;3600;48.568;7.870;2023-03-23T12:01:47;2.42;;;2.22;;
7116;SDS011;3600;48.568;7.870;2023-03-23T12:07:44;4.05;;;2.40;;
7116;SDS011;3600;48.568;7.870;2023-03-23T12:10:30;2.50;;;2.30;;
7116;SDS011;3600;48.568;7.870;2023-03-23T12:26:47;2.15;;;1.95;;
7116;SDS011;3600;48.568;7.870;2023-03-23T12:29:40;2.10;;;1.98;;
7116;SDS011;3600;48.568;7.870;2023-03-23T12:32:23;2.67;;;2.40;;
7116;SDS011;3600;48.568;7.870;2023-03-23T12:35:14;4.85;;;2.60;;
7116;SDS011;3600;48.568;7.870;2023-03-23T12:45:55;2.83;;;2.05;;
7116;SDS011;3600;48.568;7.870;2023-03-23T12:48:46;2.13;;;1.92;;
7116;SDS011;3600;48.568;7.870;2023-03-23T12:51:22;2.10;;;1.88;;
7116;SDS011;3600;48.568;7.870;2023-03-23T13:01:59;2.20;;;2.00;;
7116;SDS011;3600;48.568;7.870;2023-03-23T13:04:51;2.40;;;2.15;;
7116;SDS011;3600;48.568;7.870;2023-03-23T13:07:25;1.95;;;1.67;;
7116;SDS011;3600;48.568;7.870;2023-03-23T13:10:12;2.45;;;2.25;;
7116;SDS011;3600;48.568;7.870;2023-03-23T13:12:47;2.60;;;1.90;;
7116;SDS011;3600;48.568;7.870;2023-03-23T13:20:36;2.20;;;1.80;;
7116;SDS011;3600;48.568;7.870;2023-03-23T13:26:15;2.40;;;2.10;;
7116;SDS011;3600;48.568;7.870;2023-03-23T13:31:23;1.80;;;1.70;;
7116;SDS011;3600;48.568;7.870;2023-03-23T13:33:59;2.95;;;2.03;;
7116;SDS011;3600;48.568;7.870;2023-03-23T13:39:05;3.28;;;2.53;;
7116;SDS011;3600;48.568;7.870;2023-03-23T13:41:58;2.22;;;2.03;;
7116;SDS011;3600;48.568;7.870;2023-03-23T13:44:25;2.70;;;1.92;;
7116;SDS011;3600;48.568;7.870;2023-03-23T13:47:06;2.90;;;2.33;;
7116;SDS011;3600;48.568;7.870;2023-03-23T13:49:44;2.03;;;1.83;;
7116;SDS011;3600;48.568;7.870;2023-03-23T13:52:17;2.30;;;2.10;;
7116;SDS011;3600;48.568;7.870;2023-03-23T13:54:48;1.75;;;1.63;;
7116;SDS011;3600;48.568;7.870;2023-03-23T13:59:55;2.28;;;2.05;;
7116;SDS011;3600;48.568;7.870;2023-03-23T14:02:38;2.55;;;2.17;;
7116;SDS011;3600;48.568;7.870;2023-03-23T14:08:00;2.05;;;1.95;;
7116;SDS011;3600;48.568;7.870;2023-03-23T14:13:18;2.53;;;2.33;;
7116;SDS011;3600;48.568;7.870;2023-03-23T14:16:13;2.13;;;1.98;;
7116;SDS011;3600;48.568;7.870;2023-03-23T14:18:42;4.22;;;2.00;;
7116;SDS011;3600;48.568;7.870;2023-03-23T14:21:22;2.80;;;2.42;;
7116;SDS011;3600;48.568;7.870;2023-03-23T14:24:00;2.33;;;2.13;;
7116;SDS011;3600;48.568;7.870;2023-03-23T14:26:44;4.03;;;2.08;;
7116;SDS011;3600;48.568;7.870;2023-03-23T14:29:11;2.80;;;2.55;;
7116;SDS011;3600;48.568;7.870;2023-03-23T14:31:38;2.47;;;2.03;;
7116;SDS011;3600;48.568;7.870;2023-03-23T14:34:15;2.58;;;2.22;;
7116;SDS011;3600;48.568;7.870;2023-03-23T14:36:44;2.95;;;2.20;;
7116;SDS011;3600;48.568;7.870;2023-03-23T14:41:45;2.90;;;2.20;;
7116;SDS011;3600;48.568;7.870;2023-03-23T14:44:20;3.78;;;2.60;;
7116;SDS011;3600;48.568;7.870;2023-03-23T14:46:58;2.13;;;1.92;;
7116;SDS011;3600;48.568;7.870;2023-03-23T14:49:30;2.63;;;2.42;;
7116;SDS011;3600;48.568;7.870;2023-03-23T14:52:02;3.00;;;2.63;;
7116;SDS011;3600;48.568;7.870;2023-03-23T14:54:36;2.83;;;2.35;;
7116;SDS011;3600;48.568;7.870;2023-03-23T14:57:13;2.25;;;2.10;;
7116;SDS011;3600;48.568;7.870;2023-03-23T14:59:43;3.03;;;2.17;;
7116;SDS011;3600;48.568;7.870;2023-03-23T15:02:12;2.38;;;2.10;;
7116;SDS011;3600;48.568;7.870;2023-03-23T15:05:25;2.65;;;2.15;;
7116;SDS011;3600;48.568;7.870;2023-03-23T15:07:47;2.15;;;2.00;;
7116;SDS011;3600;48.568;7.870;2023-03-23T15:10:18;5.00;;;2.22;;
7116;SDS011;3600;48.568;7.870;2023-03-23T15:12:47;2.80;;;2.45;;
7116;SDS011;3600;48.568;7.870;2023-03-23T15:15:20;2.30;;;2.10;;
7116;SDS011;3600;48.568;7.870;2023-03-23T15:17:51;2.60;;;2.40;;
7116;SDS011;3600;48.568;7.870;2023-03-23T15:21:07;2.40;;;2.20;;
7116;SDS011;3600;48.568;7.870;2023-03-23T15:23:14;2.47;;;2.22;;
7116;SDS011;3600;48.568;7.870;2023-03-23T15:25:47;2.30;;;2.03;;
7116;SDS011;3600;48.568;7.870;2023-03-23T15:28:16;2.50;;;2.30;;
7116;SDS011;3600;48.568;7.870;2023-03-23T15:30:51;1.60;;;1.50;;
7116;SDS011;3600;48.568;7.870;2023-03-23T15:33:19;2.97;;;2.05;;
7116;SDS011;3600;48.568;7.870;2023-03-23T15:35:51;2.20;;;2.00;;
7116;SDS011;3600;48.568;7.870;2023-03-23T15:40:54;1.70;;;1.60;;
7116;SDS011;3600;48.568;7.870;2023-03-23T15:43:22;1.80;;;1.70;;
7116;SDS011;3600;48.568;7.870;2023-03-23T15:48:21;1.73;;;1.50;;
7116;SDS011;3600;48.568;7.870;2023-03-23T15:50:48;2.83;;;1.95;;
7116;SDS011;3600;48.568;7.870;2023-03-23T15:55:53;1.98;;;1.75;;
7116;SDS011;3600;48.568;7.870;2023-03-23T15:58:19;2.13;;;1.65;;
7116;SDS011;3600;48.568;7.870;2023-03-23T16:00:46;1.92;;;1.75;;
7116;SDS011;3600;48.568;7.870;2023-03-23T16:03:21;1.73;;;1.60;;
7116;SDS011;3600;48.568;7.870;2023-03-23T16:05:53;1.83;;;1.73;;
7116;SDS011;3600;48.568;7.870;2023-03-23T16:08:22;1.83;;;1.73;;
7116;SDS011;3600;48.568;7.870;2023-03-23T16:10:49;3.90;;;1.92;;
7116;SDS011;3600;48.568;7.870;2023-03-23T16:13:16;1.35;;;1.25;;
7116;SDS011;3600;48.568;7.870;2023-03-23T16:15:43;1.88;;;1.75;;
7116;SDS011;3600;48.568;7.870;2023-03-23T16:18:15;2.10;;;1.85;;
7116;SDS011;3600;48.568;7.870;2023-03-23T16:20:45;2.05;;;1.73;;
7116;SDS011;3600;48.568;7.870;2023-03-23T16:23:14;2.10;;;1.60;;
7116;SDS011;3600;48.568;7.870;2023-03-23T16:25:41;3.13;;;1.73;;
7116;SDS011;3600;48.568;7.870;2023-03-23T16:28:11;2.72;;;1.88;;
7116;SDS011;3600;48.568;7.870;2023-03-23T16:30:40;1.95;;;1.70;;
7116;SDS011;3600;48.568;7.870;2023-03-23T16:33:08;3.47;;;1.77;;
7116;SDS011;3600;48.568;7.870;2023-03-23T16:35:35;2.35;;;1.77;;
7116;SDS011;3600;48.568;7.870;2023-03-23T16:38:03;1.83;;;1.70;;
7116;SDS011;3600;48.568;7.870;2023-03-23T16:40:33;2.30;;;2.10;;
7116;SDS011;3600;48.568;7.870;2023-03-23T16:43:01;2.10;;;1.95;;
7116;SDS011;3600;48.568;7.870;2023-03-23T16:45:35;1.90;;;1.80;;
7116;SDS011;3600;48.568;7.870;2023-03-23T16:48:02;3.33;;;1.67;;
7116;SDS011;3600;48.568;7.870;2023-03-23T16:50:30;1.70;;;1.60;;
7116;SDS011;3600;48.568;7.870;2023-03-23T16:52:57;2.10;;;2.00;;
7116;SDS011;3600;48.568;7.870;2023-03-23T16:55:24;1.60;;;1.50;;
7116;SDS011;3600;48.568;7.870;2023-03-23T16:57:52;1.92;;;1.77;;
7116;SDS011;3600;48.568;7.870;2023-03-23T17:00:38;4.00;;;2.05;;
7116;SDS011;3600;48.568;7.870;2023-03-23T17:03:06;2.70;;;1.52;;
7116;SDS011;3600;48.568;7.870;2023-03-23T17:05:34;2.00;;;1.80;;
7116;SDS011;3600;48.568;7.870;2023-03-23T17:08:01;2.38;;;2.00;;
7116;SDS011;3600;48.568;7.870;2023-03-23T17:10:29;2.63;;;2.25;;
7116;SDS011;3600;48.568;7.870;2023-03-23T17:12:56;2.72;;;2.17;;
7116;SDS011;3600;48.568;7.870;2023-03-23T17:15:23;3.10;;;1.98;;
7116;SDS011;3600;48.568;7.870;2023-03-23T17:17:51;2.53;;;1.90;;
7116;SDS011;3600;48.568;7.870;2023-03-23T17:20:20;2.38;;;2.15;;
7116;SDS011;3600;48.568;7.870;2023-03-23T17:22:47;2.35;;;1.75;;
7116;SDS011;3600;48.568;7.870;2023-03-23T17:25:14;1.92;;;1.70;;
7116;SDS011;3600;48.568;7.870;2023-03-23T17:27:41;2.22;;;1.95;;